Time;durP1;ratioP1;P1;durP2;ratioP2;P2;SDS_P1;SDS_P2;PMS_P1;PMS_P2;Temp;Humidity;BMP_temperature;BMP_pressure;BME280_temperature;BME280_humidity;BME280_pressure;Samples;Min_cycle;Max_cycle;Signal;HPM_P1;HPM_P2
2023/03/31 00:01:14;;;;;;;0.10;0.10;;;;;;;0.76;71.37;99091.69;4988218;28;20462;-71
2023/03/31 00:03:42;;;;;;;0.10;0.10;;;;;;;0.75;71.30;99087.34;4951101;28;20046;-71
2023/03/31 00:06:10;;;;;;;0.10;0.10;;;;;;;0.75;71.20;99083.81;4980729;28;20577;-71
2023/03/31 00:08:39;;;;;;;0.10;0.10;;;;;;;0.70;71.14;99081.81;4984044;28;20054;-71
2023/03/31 00:11:06;;;;;;;0.10;0.10;;;;;;;0.65;71.16;99085.19;4990901;28;20057;-71
2023/03/31 00:13:32;;;;;;;0.10;0.10;;;;;;;0.60;70.78;99082.34;4995896;28;20052;-72
2023/03/31 00:16:01;;;;;;;0.10;0.10;;;;;;;0.37;70.94;99048.91;4984621;28;20053;-71
2023/03/31 00:18:28;;;;;;;0.10;0.10;;;;;;;0.60;71.01;99079.66;4987450;28;20058;-70
2023/03/31 00:21:05;;;;;;;0.10;0.10;;;;;;;0.54;71.19;99081.38;4982644;28;20506;-70
2023/03/31 00:23:31;;;;;;;0.10;0.10;;;;;;;0.48;71.03;99071.53;4986430;28;20058;-70
2023/03/31 00:25:57;;;;;;;0.10;0.10;;;;;;;0.57;71.04;99082.81;4982716;28;20046;-70
2023/03/31 00:28:24;;;;;;;0.10;0.10;;;;;;;0.60;71.11;99087.72;4983504;28;20053;-70
2023/03/31 00:30:51;;;;;;;0.00;0.00;;;;;;;0.62;70.93;99079.44;4967579;28;20054;-69
2023/03/31 00:33:20;;;;;;;0.10;0.10;;;;;;;0.63;70.95;99081.91;4984324;28;20053;-70
2023/03/31 00:35:50;;;;;;;0.00;0.00;;;;;;;0.62;70.87;99077.56;4983220;28;20058;-70
2023/03/31 00:38:16;;;;;;;0.10;0.10;;;;;;;0.60;70.69;99076.16;4983011;28;20054;-70
2023/03/31 00:40:47;;;;;;;0.20;0.10;;;;;;;0.49;70.90;99067.00;4982635;28;20517;-70
2023/03/31 00:43:29;;;;;;;0.38;0.17;;;;;;;0.47;71.00;99074.44;4985065;28;20466;-70
2023/03/31 00:46:04;;;;;;;0.10;0.10;;;;;;;0.42;71.01;99065.19;4983063;28;20097;-70
2023/03/31 00:48:33;;;;;;;0.10;0.10;;;;;;;0.41;71.30;99066.22;4986230;28;20050;-70
2023/03/31 00:51:03;;;;;;;0.10;0.10;;;;;;;0.45;71.27;99073.84;4984057;28;20145;-70
2023/03/31 00:53:32;;;;;;;0.10;0.10;;;;;;;0.27;71.28;99045.94;5002625;28;20050;-70
2023/03/31 00:56:03;;;;;;;0.10;0.10;;;;;;;0.40;71.22;99067.28;4988195;28;20057;-70
2023/03/31 00:58:32;;;;;;;0.10;0.10;;;;;;;0.41;71.30;99068.94;4984505;28;20057;-69
2023/03/31 01:01:01;;;;;;;0.10;0.10;;;;;;;0.40;71.32;99064.59;4984483;28;20514;-70
2023/03/31 01:03:29;;;;;;;0.10;0.10;;;;;;;0.39;71.16;99064.81;4966743;28;20433;-70
2023/03/31 01:06:00;;;;;;;0.10;0.10;;;;;;;0.28;71.37;99061.84;4983690;28;20057;-70
2023/03/31 01:08:31;;;;;;;0.10;0.10;;;;;;;0.27;71.39;99048.63;5000131;28;20062;-70
2023/03/31 01:11:00;;;;;;;0.10;0.10;;;;;;;0.28;71.39;99042.19;4984398;28;20541;-70
2023/03/31 01:13:28;;;;;;;0.10;0.10;;;;;;;0.25;71.46;99037.25;4983106;28;20048;-70
2023/03/31 01:15:55;;;;;;;0.10;0.10;;;;;;;0.25;71.47;99035.41;4966174;28;20050;-69
2023/03/31 01:18:22;;;;;;;0.08;0.08;;;;;;;0.04;71.92;99012.50;4982134;28;20054;-70
2023/03/31 01:21:14;;;;;;;0.10;0.10;;;;;;;0.16;71.92;99042.13;4972449;28;20055;-69
2023/03/31 01:24:10;;;;;;;0.08;0.08;;;;;;;0.17;72.02;99038.41;4983005;28;20606;-69
2023/03/31 01:26:57;;;;;;;0.08;0.08;;;;;;;0.13;72.19;99038.00;4989239;28;20049;-69
2023/03/31 01:29:33;;;;;;;;;;;;;;;0.12;72.12;99025.63;5000827;28;20064;-70
2023/03/31 01:32:23;;;;;;;0.10;0.10;;;;;;;0.07;72.05;99027.34;4984993;28;19932;-70
2023/03/31 01:35:19;;;;;;;0.10;0.10;;;;;;;0.02;72.16;99024.50;5001324;28;20209;-70
2023/03/31 01:38:17;;;;;;;0.10;0.10;;;;;;;-0.04;72.33;99027.06;4990261;28;20056;-70
2023/03/31 01:41:03;;;;;;;0.40;0.10;;;;;;;-0.02;72.45;99029.50;5008125;28;20046;-70
2023/03/31 01:43:38;;;;;;;0.10;0.10;;;;;;;0.01;72.36;99020.19;5006057;28;20111;-70
2023/03/31 01:46:12;;;;;;;0.10;0.10;;;;;;;0.01;72.36;99025.56;5006190;28;20089;-70
2023/03/31 01:48:47;;;;;;;0.10;0.10;;;;;;;0.06;72.37;99023.84;5004354;28;20513;-70
2023/03/31 01:51:16;;;;;;;0.10;0.10;;;;;;;0.06;72.29;99025.69;5008019;28;20105;-69
2023/03/31 01:53:49;;;;;;;0.10;0.10;;;;;;;-0.01;72.37;99015.84;5010087;28;20128;-70
2023/03/31 01:56:21;;;;;;;0.10;0.10;;;;;;;0.10;72.26;99029.59;5007118;28;20158;-70
2023/03/31 01:58:53;;;;;;;0.10;0.10;;;;;;;0.12;72.41;99020.25;5004394;28;20053;-70
2023/03/31 02:01:25;;;;;;;0.10;0.10;;;;;;;0.09;72.47;99020.69;5003550;28;20509;-70
2023/03/31 02:03:55;;;;;;;0.10;0.10;;;;;;;0.13;72.53;99021.06;5004628;28;20049;-70
2023/03/31 02:06:26;;;;;;;0.10;0.10;;;;;;;0.13;72.55;99023.75;5005726;28;20125;-70
2023/03/31 02:08:56;;;;;;;0.10;0.10;;;;;;;0.14;72.83;99022.72;5006714;28;20136;-70
2023/03/31 02:11:28;;;;;;;0.10;0.10;;;;;;;0.11;72.88;99015.09;5006564;28;20139;-70
2023/03/31 02:14:00;;;;;;;0.45;0.20;;;;;;;-0.01;73.10;99009.63;5006547;28;20046;-70
2023/03/31 02:16:49;;;;;;;0.88;0.22;;;;;;;0.06;73.14;99017.63;5004288;28;20052;-69
2023/03/31 02:19:18;;;;;;;0.10;0.10;;;;;;;0.00;73.64;99016.69;5004673;28;20604;-70
2023/03/31 02:21:50;;;;;;;0.10;0.10;;;;;;;-0.04;73.56;98999.34;5004888;28;20122;-71
2023/03/31 02:24:19;;;;;;;0.10;0.10;;;;;;;-0.02;73.75;99011.53;5008643;28;20517;-70
2023/03/31 02:26:53;;;;;;;0.10;0.10;;;;;;;0.03;73.58;99012.72;5005591;28;20107;-70
2023/03/31 02:29:20;;;;;;;0.10;0.10;;;;;;;0.02;73.72;99011.91;5006625;28;20038;-70
2023/03/31 02:31:50;;;;;;;0.10;0.10;;;;;;;0.04;73.83;99025.94;5003679;28;20153;-70
2023/03/31 02:34:17;;;;;;;0.10;0.10;;;;;;;-0.10;73.69;98998.38;4990384;28;20046;-70
2023/03/31 02:36:44;;;;;;;0.10;0.10;;;;;;;0.07;73.72;99028.16;5004898;28;20528;-70
2023/03/31 02:39:17;;;;;;;0.10;0.10;;;;;;;0.03;73.91;99021.59;4973088;28;20053;-70
2023/03/31 02:41:43;;;;;;;0.10;0.10;;;;;;;0.15;73.82;99027.03;4986445;28;20423;-70
2023/03/31 02:44:11;;;;;;;0.10;0.10;;;;;;;0.18;73.62;99039.22;5006156;28;20046;-70
2023/03/31 02:46:38;;;;;;;0.10;0.10;;;;;;;0.15;73.83;99043.19;5006727;28;20543;-70
2023/03/31 02:49:08;;;;;;;0.10;0.10;;;;;;;0.06;73.75;99033.75;5006525;28;20409;-70
2023/03/31 02:52:08;;;;;;;0.25;0.10;;;;;;;0.03;73.88;99040.44;5005792;28;20057;-75
2023/03/31 02:55:07;;;;;;;0.20;0.13;;;;;;;0.03;73.86;99045.81;5005429;28;20077;-75
2023/03/31 02:57:55;;;;;;;0.10;0.10;;;;;;;0.04;73.78;99042.06;5005276;28;20052;-75
2023/03/31 03:00:36;;;;;;;0.10;0.10;;;;;;;-0.03;73.88;99022.47;4990857;28;20089;-75
2023/03/31 03:03:17;;;;;;;0.10;0.10;;;;;;;0.05;73.72;99027.56;5004446;28;20057;-75
2023/03/31 03:05:53;;;;;;;0.38;0.15;;;;;;;0.07;73.94;99025.47;5004624;28;20038;-75
2023/03/31 03:08:59;;;;;;;0.10;0.10;;;;;;;0.06;73.84;99029.22;5003875;28;20050;-77
2023/03/31 03:11:35;;;;;;;0.10;0.10;;;;;;;-0.02;73.79;99033.03;5022561;28;20042;-75
2023/03/31 03:14:11;;;;;;;0.10;0.10;;;;;;;0.01;73.98;99037.16;5004827;28;20112;-75
2023/03/31 03:16:42;;;;;;;0.10;0.10;;;;;;;0.01;74.09;99034.44;5004098;28;20512;-74
2023/03/31 03:19:09;;;;;;;0.10;0.10;;;;;;;-0.11;74.56;99022.81;4989502;28;20061;-75
2023/03/31 03:21:35;;;;;;;0.10;0.10;;;;;;;-0.09;74.56;99024.19;5003758;28;20420;-74
2023/03/31 03:24:02;;;;;;;0.10;0.10;;;;;;;-0.03;74.63;99014.41;4998605;28;20540;-75
2023/03/31 03:26:28;;;;;;;0.10;0.10;;;;;;;0.02;74.39;99011.06;4983855;28;20502;-75
2023/03/31 03:28:55;;;;;;;0.10;0.10;;;;;;;0.01;74.42;99004.88;4984614;28;20502;-75
2023/03/31 03:31:22;;;;;;;0.10;0.10;;;;;;;0.07;74.35;98995.06;4968817;28;20252;-75
2023/03/31 03:33:50;;;;;;;0.10;0.10;;;;;;;0.06;74.28;98986.19;4988283;28;20050;-75
2023/03/31 03:36:16;;;;;;;;;;;;;;;0.06;74.31;98975.44;4985133;28;20073;-74
2023/03/31 03:38:42;;;;;;;0.03;0.03;;;;;;;0.03;74.19;98965.16;4989274;28;19956;-75
2023/03/31 03:41:09;;;;;;;0.10;0.10;;;;;;;0.04;74.25;98979.41;4984020;28;20058;-75
2023/03/31 03:43:35;;;;;;;0.10;0.10;;;;;;;-0.07;74.17;98954.94;4986784;28;20077;-75
2023/03/31 03:46:01;;;;;;;0.10;0.10;;;;;;;-0.02;74.61;98965.00;4984012;28;20438;-75
2023/03/31 03:48:27;;;;;;;0.10;0.10;;;;;;;-0.03;74.96;98969.56;4986071;28;20089;-74
2023/03/31 03:50:58;;;;;;;0.10;0.10;;;;;;;-0.03;74.97;98961.50;4983885;28;20518;-74
2023/03/31 03:53:24;;;;;;;0.38;0.20;;;;;;;0.01;74.96;98969.09;4985607;28;20046;-74
2023/03/31 03:55:50;;;;;;;0.63;0.10;;;;;;;0.07;75.18;98970.88;4985960;28;20071;-74
2023/03/31 03:58:18;;;;;;;0.10;0.10;;;;;;;0.16;75.01;98966.84;4983079;28;20050;-75
2023/03/31 04:00:45;;;;;;;0.10;0.10;;;;;;;0.14;74.64;98953.63;4966951;28;20091;-69
2023/03/31 04:03:11;;;;;;;0.10;0.10;;;;;;;0.22;74.38;98973.19;4984979;28;20050;-69
2023/03/31 04:05:37;;;;;;;0.10;0.10;;;;;;;0.19;74.61;98965.59;4987602;28;20062;-70
2023/03/31 04:08:07;;;;;;;0.10;0.10;;;;;;;0.24;74.49;98960.34;4989039;28;20046;-70
2023/03/31 04:10:33;;;;;;;0.13;0.13;;;;;;;0.09;74.33;98934.66;4985391;28;20046;-70
2023/03/31 04:12:59;;;;;;;0.10;0.10;;;;;;;0.19;74.06;98955.63;4983998;28;20514;-70
2023/03/31 04:15:25;;;;;;;0.10;0.10;;;;;;;0.15;74.29;98962.53;4992655;28;20044;-70
2023/03/31 04:17:53;;;;;;;0.10;0.10;;;;;;;0.15;74.37;98970.59;5006932;28;20448;-70
2023/03/31 04:20:20;;;;;;;0.10;0.10;;;;;;;0.11;74.38;98958.66;4994320;28;20089;-70
2023/03/31 04:22:49;;;;;;;0.20;0.20;;;;;;;0.09;74.27;98952.69;4981837;28;20062;-70
2023/03/31 04:25:17;;;;;;;0.10;0.10;;;;;;;0.10;74.53;98957.81;4982583;28;20461;-70
2023/03/31 04:27:53;;;;;;;0.20;0.20;;;;;;;0.14;74.54;98956.31;4968926;28;20042;-70
2023/03/31 04:30:23;;;;;;;0.10;0.10;;;;;;;0.15;74.52;98943.69;4968690;28;20054;-70
2023/03/31 04:32:51;;;;;;;0.17;0.17;;;;;;;0.14;74.48;98942.06;4988195;28;20554;-70
2023/03/31 04:35:19;;;;;;;0.13;0.10;;;;;;;0.17;74.55;98944.28;4969168;28;20429;-69
2023/03/31 04:37:45;;;;;;;;;;;;;;;0.23;74.56;98947.94;5004267;28;20050;-71
2023/03/31 04:40:12;;;;;;;0.28;0.10;;;;;;;0.07;74.34;98930.56;5002905;28;19933;-70
2023/03/31 04:42:39;;;;;;;0.10;0.10;;;;;;;0.17;74.31;98949.66;5003225;28;20058;-70
2023/03/31 04:45:06;;;;;;;0.10;0.10;;;;;;;0.12;74.40;98950.34;5004644;28;20072;-70
2023/03/31 04:47:33;;;;;;;0.10;0.10;;;;;;;0.13;74.69;98941.22;5005109;28;20477;-70
2023/03/31 04:49:59;;;;;;;0.10;0.10;;;;;;;0.15;74.55;98946.38;5004918;28;20053;-71
2023/03/31 04:52:25;;;;;;;0.43;0.10;;;;;;;0.18;74.47;98945.94;4990493;28;20053;-70
2023/03/31 04:54:51;;;;;;;0.10;0.10;;;;;;;0.12;74.37;98944.16;5006707;28;20089;-69
2023/03/31 04:57:17;;;;;;;0.10;0.10;;;;;;;0.14;74.51;98950.13;4999772;28;20504;-70
2023/03/31 04:59:45;;;;;;;0.10;0.10;;;;;;;0.11;74.35;98953.28;5002479;28;20116;-69
2023/03/31 05:02:11;;;;;;;;;;;;;;;0.11;74.31;98954.06;5002892;28;20069;-70
2023/03/31 05:04:37;;;;;;;0.10;0.10;;;;;;;0.22;74.19;98952.47;5003026;28;20042;-69
2023/03/31 05:07:03;;;;;;;0.10;0.10;;;;;;;0.25;73.61;98940.47;4987444;28;20543;-70
2023/03/31 05:09:29;;;;;;;0.10;0.10;;;;;;;0.23;73.84;98948.75;5003167;28;20096;-70
2023/03/31 05:11:56;;;;;;;0.10;0.10;;;;;;;0.39;73.58;98958.06;5005685;28;20041;-69
2023/03/31 05:14:22;;;;;;;0.00;0.00;;;;;;;0.47;73.31;98956.06;5005404;28;20096;-69
2023/03/31 05:16:50;;;;;;;0.30;0.20;;;;;;;0.42;73.40;98965.66;5004287;28;20515;-70
2023/03/31 05:19:17;;;;;;;0.10;0.10;;;;;;;0.47;73.37;98962.28;5001755;28;20505;-70
2023/03/31 05:21:43;;;;;;;0.10;0.10;;;;;;;0.52;73.22;98942.78;5005670;28;20385;-75
2023/03/31 05:24:10;;;;;;;0.10;0.10;;;;;;;0.55;73.42;98942.31;5001399;28;20541;-72
2023/03/31 05:26:36;;;;;;;0.10;0.10;;;;;;;0.54;73.12;98946.06;5006038;28;20058;-73
2023/03/31 05:29:02;;;;;;;0.10;0.10;;;;;;;0.56;73.21;98944.78;5006540;28;20315;-73
2023/03/31 05:31:28;;;;;;;0.10;0.10;;;;;;;0.63;73.13;98936.63;4996350;28;20041;-73
2023/03/31 05:33:56;;;;;;;0.20;0.20;;;;;;;0.69;72.74;98913.31;4991225;28;20050;-73
2023/03/31 05:36:22;;;;;;;0.10;0.10;;;;;;;0.77;72.24;98917.53;4994107;28;20058;-73
2023/03/31 05:38:48;;;;;;;0.10;0.10;;;;;;;0.78;72.33;98921.88;4995758;28;20057;-73
2023/03/31 05:41:15;;;;;;;0.10;0.10;;;;;;;0.79;72.56;98929.72;4993299;28;20042;-73
2023/03/31 05:43:42;;;;;;;0.10;0.10;;;;;;;0.89;72.17;98922.97;4993928;28;20073;-73
2023/03/31 05:46:11;;;;;;;0.30;0.20;;;;;;;0.94;71.90;98906.91;4994623;28;20058;-73
2023/03/31 05:48:37;;;;;;;0.20;0.20;;;;;;;1.01;71.56;98898.72;5003935;28;20183;-73
2023/03/31 05:51:05;;;;;;;0.10;0.10;;;;;;;1.09;71.37;98901.06;5001012;28;20592;-71
2023/03/31 05:53:31;;;;;;;0.10;0.10;;;;;;;1.12;71.08;98908.69;4996442;28;20060;-71
2023/03/31 05:55:58;;;;;;;0.20;0.20;;;;;;;1.12;71.01;98898.72;5003303;28;20046;-71
2023/03/31 05:58:25;;;;;;;0.10;0.10;;;;;;;1.13;70.58;98897.66;5005818;28;20057;-73
2023/03/31 06:01:00;;;;;;;0.20;0.20;;;;;;;1.09;70.96;98888.44;5005163;28;20525;-73
2023/03/31 06:03:26;;;;;;;0.10;0.10;;;;;;;1.18;70.90;98893.47;5017296;28;20137;-71
2023/03/31 06:05:54;;;;;;;0.38;0.10;;;;;;;1.12;70.49;98898.72;5002048;28;20054;-71
2023/03/31 06:08:22;;;;;;;0.10;0.10;;;;;;;1.06;70.89;98885.38;5003547;28;20409;-71
2023/03/31 06:10:48;;;;;;;0.20;0.20;;;;;;;1.22;70.91;98900.81;5003847;28;20054;-72
2023/03/31 06:13:14;;;;;;;0.10;0.10;;;;;;;1.37;70.55;98902.22;4998612;28;20100;-73
2023/03/31 06:15:41;;;;;;;0.10;0.10;;;;;;;1.49;70.27;98911.13;4985204;28;20066;-74
2023/03/31 06:18:09;;;;;;;0.10;0.10;;;;;;;1.62;69.81;98907.31;4986214;28;20576;-73
2023/03/31 06:20:35;;;;;;;0.75;0.30;;;;;;;1.67;69.24;98907.47;4986117;28;20054;-73
2023/03/31 06:23:01;;;;;;;0.20;0.20;;;;;;;1.72;69.10;98909.44;4985997;28;20058;-74
2023/03/31 06:25:29;;;;;;;0.10;0.10;;;;;;;1.72;68.89;98893.28;5002407;28;20054;-73
2023/03/31 06:27:55;;;;;;;0.17;0.17;;;;;;;1.77;68.53;98903.31;4991078;28;20045;-73
2023/03/31 06:30:21;;;;;;;0.20;0.20;;;;;;;1.67;68.65;98899.38;5001454;28;20116;-74
2023/03/31 06:32:47;;;;;;;0.20;0.20;;;;;;;1.69;68.93;98902.63;5008396;28;20545;-73
2023/03/31 06:35:13;;;;;;;0.17;0.17;;;;;;;1.73;68.89;98896.78;4993444;28;20137;-73
2023/03/31 06:37:40;;;;;;;0.10;0.10;;;;;;;1.71;68.85;98899.69;4990656;28;20049;-73
2023/03/31 06:40:07;;;;;;;0.20;0.20;;;;;;;1.72;68.99;98898.66;4998156;28;20490;-73
2023/03/31 06:42:35;;;;;;;;;;;;;;;1.73;68.94;98894.06;5009078;28;20049;-73
2023/03/31 06:45:01;;;;;;;0.20;0.20;;;;;;;1.70;68.71;98893.50;4999742;28;19929;-73
2023/03/31 06:47:29;;;;;;;0.17;0.15;;;;;;;1.77;68.72;98900.63;5006392;28;20042;-73
2023/03/31 06:49:55;;;;;;;0.10;0.10;;;;;;;1.74;68.84;98904.63;5009326;28;20521;-72
2023/03/31 06:52:21;;;;;;;0.10;0.10;;;;;;;1.82;68.88;98901.53;5004211;28;20052;-73
2023/03/31 06:54:47;;;;;;;0.17;0.17;;;;;;;1.86;68.69;98901.06;4997162;28;20512;-73
2023/03/31 06:57:13;;;;;;;0.15;0.15;;;;;;;1.91;68.46;98904.69;5002288;28;20069;-73
2023/03/31 06:59:41;;;;;;;0.10;0.10;;;;;;;1.99;68.14;98884.59;4996982;28;20131;-73
2023/03/31 07:02:09;;;;;;;0.17;0.17;;;;;;;1.98;68.20;98873.00;4999276;28;20046;-71
2023/03/31 07:04:35;;;;;;;0.25;0.25;;;;;;;1.99;68.08;98879.22;5013403;28;20054;-73
2023/03/31 07:07:01;;;;;;;0.43;0.20;;;;;;;1.96;68.32;98875.13;5006014;28;20041;-73
2023/03/31 07:09:28;;;;;;;0.10;0.10;;;;;;;1.99;68.29;98881.91;4997843;28;21530;-73
2023/03/31 07:11:54;;;;;;;0.20;0.20;;;;;;;1.92;68.29;98890.13;4999371;28;20148;-71
2023/03/31 07:14:21;;;;;;;0.82;0.30;;;;;;;1.90;68.40;98896.84;4988101;28;20046;-70
2023/03/31 07:16:49;;;;;;;;;;;;;;;1.91;68.52;98888.50;4987045;28;20132;-70
2023/03/31 07:19:15;;;;;;;0.22;0.20;;;;;;;1.95;68.08;98886.16;4986903;28;19957;-70
2023/03/31 07:21:41;;;;;;;0.10;0.10;;;;;;;1.98;68.37;98867.63;4998154;28;20042;-71
2023/03/31 07:24:08;;;;;;;0.20;0.20;;;;;;;2.04;68.20;98865.00;5004684;28;20149;-71
2023/03/31 07:26:34;;;;;;;0.22;0.20;;;;;;;2.05;68.18;98875.56;5002474;28;20132;-71
2023/03/31 07:29:00;;;;;;;0.20;0.20;;;;;;;2.10;68.16;98869.44;5002854;28;20492;-71
2023/03/31 07:31:26;;;;;;;0.10;0.10;;;;;;;2.10;68.06;98862.16;5004310;28;20058;-71
2023/03/31 07:33:54;;;;;;;0.10;0.10;;;;;;;2.03;68.04;98860.69;5003985;28;20054;-71
2023/03/31 07:36:20;;;;;;;0.15;0.15;;;;;;;2.01;68.13;98860.91;5005875;28;20046;-72
2023/03/31 07:38:48;;;;;;;0.30;0.20;;;;;;;2.10;68.15;98867.56;5014255;28;20045;-71
2023/03/31 07:41:16;;;;;;;0.10;0.10;;;;;;;2.19;68.02;98870.69;4998694;28;20058;-72
2023/03/31 07:43:42;;;;;;;0.20;0.20;;;;;;;2.17;68.19;98872.81;5003898;28;20046;-72
2023/03/31 07:46:14;;;;;;;0.10;0.10;;;;;;;2.16;68.20;98863.09;4986029;28;20051;-71
2023/03/31 07:48:40;;;;;;;0.10;0.10;;;;;;;2.17;68.25;98861.19;4997003;28;20088;-71
2023/03/31 07:51:07;;;;;;;0.20;0.20;;;;;;;2.20;68.33;98871.50;5008760;28;20045;-72
2023/03/31 07:53:36;;;;;;;0.10;0.10;;;;;;;2.18;68.19;98877.13;5006193;28;20158;-72
2023/03/31 07:56:02;;;;;;;0.10;0.10;;;;;;;2.23;68.22;98868.31;5007656;28;20141;-71
2023/03/31 07:58:28;;;;;;;0.10;0.10;;;;;;;2.26;68.09;98865.97;5008331;28;20092;-71
2023/03/31 08:00:54;;;;;;;0.80;0.20;;;;;;;2.26;68.09;98857.03;5005146;28;20041;-70
2023/03/31 08:03:21;;;;;;;1.55;0.22;;;;;;;2.25;68.04;98855.41;5006798;28;20515;-69
2023/03/31 08:05:50;;;;;;;0.20;0.20;;;;;;;2.34;68.11;98859.34;4996595;28;20660;-69
2023/03/31 08:08:18;;;;;;;0.10;0.10;;;;;;;2.30;68.14;98846.59;5004010;28;20042;-70
2023/03/31 08:10:44;;;;;;;0.43;0.20;;;;;;;2.32;67.83;98847.97;5006284;28;20054;-72
2023/03/31 08:13:11;;;;;;;0.20;0.20;;;;;;;2.33;67.97;98860.38;5004121;28;20107;-72
2023/03/31 08:15:37;;;;;;;0.63;0.20;;;;;;;2.30;67.90;98852.78;5005263;28;20065;-71
2023/03/31 08:18:03;;;;;;;0.10;0.10;;;;;;;2.18;68.22;98842.06;5004367;28;20057;-71
2023/03/31 08:20:30;;;;;;;0.10;0.10;;;;;;;2.23;68.32;98844.06;5002284;28;20050;-71
2023/03/31 08:22:56;;;;;;;0.20;0.20;;;;;;;2.21;68.59;98833.50;5014769;28;20612;-71
2023/03/31 08:25:24;;;;;;;0.80;0.20;;;;;;;2.04;68.59;98811.06;5000955;28;20054;-71
2023/03/31 08:27:50;;;;;;;;;;;;;;;2.16;68.66;98825.31;4988326;28;20049;-71
2023/03/31 08:30:18;;;;;;;0.20;0.20;;;;;;;2.10;68.47;98816.31;5005123;28;20339;-71
2023/03/31 08:32:44;;;;;;;0.10;0.10;;;;;;;2.16;68.61;98819.94;5004876;28;20141;-72
2023/03/31 08:35:10;;;;;;;0.10;0.10;;;;;;;2.20;68.60;98821.06;5001904;28;20045;-72
2023/03/31 08:37:36;;;;;;;0.20;0.20;;;;;;;2.26;68.51;98817.41;5005175;28;20145;-72
2023/03/31 08:40:08;;;;;;;0.60;0.20;;;;;;;2.25;68.33;98799.56;5002018;28;20046;-71
2023/03/31 08:42:40;;;;;;;0.20;0.20;;;;;;;2.42;67.86;98801.47;5006125;28;20050;-72
2023/03/31 08:45:16;;;;;;;0.20;0.20;;;;;;;2.41;68.07;98800.66;5003645;28;20100;-72
2023/03/31 08:47:44;;;;;;;0.20;0.20;;;;;;;2.45;68.06;98800.16;5020894;28;20046;-72
2023/03/31 08:50:14;;;;;;;0.20;0.20;;;;;;;2.45;67.85;98800.97;5002474;28;20140;-72
2023/03/31 08:52:43;;;;;;;0.20;0.20;;;;;;;2.44;67.88;98801.22;5001709;28;20077;-72
2023/03/31 08:55:12;;;;;;;0.15;0.15;;;;;;;2.45;67.90;98805.53;5003329;28;20374;-70
2023/03/31 08:57:55;;;;;;;0.20;0.20;;;;;;;2.41;68.08;98792.53;5003009;28;20061;-70
2023/03/31 09:00:21;;;;;;;0.17;0.17;;;;;;;2.38;68.09;98784.94;5004044;28;20486;-69
2023/03/31 09:02:53;;;;;;;0.20;0.20;;;;;;;2.35;68.17;98788.16;5002809;28;20220;-70
2023/03/31 09:05:39;;;;;;;0.40;0.20;;;;;;;2.37;67.99;98783.31;4984418;28;20054;-69
2023/03/31 09:08:13;;;;;;;0.55;0.30;;;;;;;2.37;68.16;98785.19;5001306;28;20042;-71
2023/03/31 09:10:46;;;;;;;0.10;0.10;;;;;;;2.31;68.20;98778.09;5003452;28;20148;-71
2023/03/31 09:13:44;;;;;;;0.10;0.10;;;;;;;2.32;68.48;98796.72;5003984;28;20108;-72
2023/03/31 09:16:14;;;;;;;0.20;0.20;;;;;;;2.29;68.40;98781.00;5005135;28;20077;-71
2023/03/31 09:18:45;;;;;;;0.20;0.20;;;;;;;2.30;68.54;98773.75;5004994;28;20049;-72
2023/03/31 09:21:18;;;;;;;0.20;0.20;;;;;;;2.27;68.36;98775.06;5003263;28;20046;-71
2023/03/31 09:23:52;;;;;;;0.10;0.10;;;;;;;2.21;68.53;98773.34;4999010;28;20064;-71
2023/03/31 09:26:27;;;;;;;0.40;0.30;;;;;;;2.19;68.51;98776.28;5003410;28;20196;-72
2023/03/31 09:28:58;;;;;;;0.20;0.20;;;;;;;2.23;68.64;98763.13;4985810;28;20046;-72
2023/03/31 09:31:25;;;;;;;0.15;0.15;;;;;;;2.31;68.46;98770.78;5003074;28;20046;-71
2023/03/31 09:33:58;;;;;;;0.33;0.20;;;;;;;2.35;68.49;98758.47;5001119;28;20042;-71
2023/03/31 09:36:24;;;;;;;0.20;0.20;;;;;;;2.42;68.18;98755.59;5001438;28;20395;-71
2023/03/31 09:38:51;;;;;;;0.20;0.20;;;;;;;2.44;68.15;98739.16;4985606;28;20038;-72
2023/03/31 09:41:20;;;;;;;0.10;0.10;;;;;;;2.53;68.01;98746.56;5005290;28;20056;-72
2023/03/31 09:43:48;;;;;;;0.20;0.20;;;;;;;2.55;67.83;98749.84;5003682;28;20049;-72
2023/03/31 09:46:23;;;;;;;;;;;;;;;2.55;67.88;98746.34;4985720;28;20038;-72
2023/03/31 09:48:55;;;;;;;0.20;0.20;;;;;;;2.49;67.62;98731.13;5002105;28;19925;-71
2023/03/31 09:51:28;;;;;;;0.10;0.10;;;;;;;2.52;67.46;98728.75;5002878;28;20052;-71
2023/03/31 09:54:01;;;;;;;0.10;0.10;;;;;;;2.60;67.47;98732.09;5000596;28;20074;-72
2023/03/31 09:56:45;;;;;;;0.20;0.20;;;;;;;2.52;67.41;98712.56;4999698;28;20616;-72
2023/03/31 09:59:15;;;;;;;0.20;0.20;;;;;;;2.61;67.47;98728.34;5005613;28;20058;-71
2023/03/31 10:01:44;;;;;;;0.30;0.30;;;;;;;2.63;67.43;98735.09;5005561;28;20557;-72
2023/03/31 10:04:18;;;;;;;0.20;0.20;;;;;;;2.64;67.47;98731.34;5007460;28;20050;-71
2023/03/31 10:06:46;;;;;;;0.10;0.10;;;;;;;2.64;67.48;98723.25;5006898;28;20563;-71
2023/03/31 10:09:12;;;;;;;0.28;0.20;;;;;;;2.57;67.94;98721.78;5003414;28;20164;-72
2023/03/31 10:11:50;;;;;;;0.20;0.20;;;;;;;2.45;67.88;98701.13;5006070;28;20069;-72
2023/03/31 10:14:15;;;;;;;;;;;;;;;2.57;68.02;98728.00;5023341;28;20053;-72
2023/03/31 10:16:52;;;;;;;0.15;0.15;;;;;;;2.52;67.82;98709.06;5007380;28;19925;-71
2023/03/31 10:19:20;;;;;;;0.10;0.10;;;;;;;2.48;68.28;98713.28;5005749;28;20056;-72
2023/03/31 10:21:54;;;;;;;0.20;0.20;;;;;;;2.47;68.32;98709.81;4988258;28;20085;-71
2023/03/31 10:24:20;;;;;;;0.10;0.10;;;;;;;2.45;68.13;98709.22;5006085;28;20041;-72
2023/03/31 10:26:48;;;;;;;0.10;0.10;;;;;;;2.40;68.63;98709.97;5004072;28;20050;-72
2023/03/31 10:29:20;;;;;;;0.10;0.10;;;;;;;2.44;68.41;98707.59;5005288;28;20084;-71
2023/03/31 10:31:49;;;;;;;0.35;0.10;;;;;;;2.47;68.58;98708.97;5005826;28;20078;-69
2023/03/31 10:34:15;;;;;;;0.10;0.10;;;;;;;2.49;68.56;98709.53;5004580;28;20046;-71
2023/03/31 10:36:46;;;;;;;0.15;0.10;;;;;;;2.46;68.58;98700.06;5006977;28;20050;-71
2023/03/31 10:39:14;;;;;;;0.10;0.10;;;;;;;2.44;68.71;98696.81;5007179;28;20410;-72
2023/03/31 10:41:40;;;;;;;0.30;0.20;;;;;;;2.55;68.75;98703.16;4989339;28;20081;-71
2023/03/31 10:44:30;;;;;;;0.15;0.15;;;;;;;2.52;68.72;98701.75;5005531;28;20042;-71
2023/03/31 10:47:04;;;;;;;0.10;0.10;;;;;;;2.60;68.74;98699.72;5008711;28;20509;-71
2023/03/31 10:49:38;;;;;;;0.10;0.10;;;;;;;2.55;68.77;98697.75;5008800;28;20540;-71
2023/03/31 10:52:15;;;;;;;0.20;0.20;;;;;;;2.56;68.97;98694.00;5006921;28;20045;-72
2023/03/31 10:54:45;;;;;;;;;;;;;;;2.60;68.96;98694.31;4989382;28;20050;-71
2023/03/31 10:57:11;;;;;;;0.50;0.30;;;;;;;2.66;69.10;98694.16;5007770;28;20364;-69
2023/03/31 10:59:51;;;;;;;0.10;0.10;;;;;;;2.66;69.34;98688.75;5007873;28;20116;-69
2023/03/31 11:02:57;;;;;;;0.43;0.17;;;;;;;2.64;70.00;98685.44;5005225;28;20240;-69
2023/03/31 11:05:30;;;;;;;0.20;0.20;;;;;;;2.58;70.78;98670.28;5000609;28;20046;-69
2023/03/31 11:08:12;;;;;;;0.38;0.20;;;;;;;2.54;71.45;98667.25;4999359;28;20077;-70
2023/03/31 11:10:58;;;;;;;0.10;0.10;;;;;;;2.45;72.10;98663.38;5003829;28;20131;-70
2023/03/31 11:13:35;;;;;;;0.10;0.10;;;;;;;2.47;72.83;98661.22;4999737;28;20038;-69
2023/03/31 11:16:10;;;;;;;0.10;0.10;;;;;;;2.48;72.97;98651.22;5004242;28;20752;-69
2023/03/31 11:18:52;;;;;;;0.10;0.10;;;;;;;2.57;73.00;98657.00;5006556;28;20085;-69
2023/03/31 11:21:26;;;;;;;0.10;0.10;;;;;;;2.61;72.82;98652.78;5006257;28;20056;-69
2023/03/31 11:24:05;;;;;;;0.15;0.15;;;;;;;2.64;73.04;98660.34;5004114;28;20175;-69
2023/03/31 11:26:45;;;;;;;0.17;0.17;;;;;;;2.62;73.20;98655.19;5001156;28;20943;-69
2023/03/31 11:29:29;;;;;;;0.20;0.20;;;;;;;2.64;72.88;98653.06;5006638;28;20065;-70
2023/03/31 11:32:01;;;;;;;0.20;0.20;;;;;;;2.66;72.98;98650.13;5003910;28;20073;-69
2023/03/31 11:34:54;;;;;;;0.20;0.20;;;;;;;2.65;73.02;98643.09;4985578;28;20104;-69
2023/03/31 11:37:46;;;;;;;0.10;0.10;;;;;;;2.61;72.85;98626.56;5006723;28;20053;-69
2023/03/31 11:40:38;;;;;;;0.10;0.10;;;;;;;2.70;72.75;98626.94;5004979;28;20541;-71
2023/03/31 11:43:21;;;;;;;0.10;0.10;;;;;;;2.75;72.60;98618.09;5001349;28;20041;-71
2023/03/31 11:45:52;;;;;;;0.10;0.10;;;;;;;2.51;72.58;98584.09;5001507;28;20053;-72
2023/03/31 11:48:28;;;;;;;0.20;0.20;;;;;;;2.71;72.73;98612.38;5003205;28;20074;-71
2023/03/31 11:50:58;;;;;;;0.10;0.10;;;;;;;2.72;72.84;98619.41;5003559;28;20073;-71
2023/03/31 11:53:29;;;;;;;0.10;0.10;;;;;;;2.71;72.92;98625.09;5001882;28;20053;-71
2023/03/31 11:55:58;;;;;;;0.15;0.15;;;;;;;2.70;73.04;98629.66;5003395;28;20240;-71
2023/03/31 11:58:32;;;;;;;0.10;0.10;;;;;;;2.67;72.55;98628.28;5001478;28;20056;-71
2023/03/31 12:01:06;;;;;;;0.13;0.10;;;;;;;2.63;73.03;98616.34;5005771;28;20104;-71